createdAt,value
2018-11-03T00:04:00.936Z,4.40
2018-11-03T00:09:06.365Z,4.07
2018-11-03T00:14:10.037Z,5.67
2018-11-03T00:19:13.437Z,4.60
2018-11-03T00:24:16.750Z,5.23
2018-11-03T00:29:20.033Z,3.60
2018-11-03T00:34:23.344Z,3.43
2018-11-03T00:39:26.647Z,4.80
2018-11-03T00:44:29.953Z,6.27
2018-11-03T00:49:33.263Z,3.80
2018-11-03T00:54:36.696Z,4.60
2018-11-03T00:59:39.977Z,3.70
2018-11-03T01:04:43.279Z,4.93
2018-11-03T01:09:46.565Z,8.10
2018-11-03T01:14:49.897Z,6.57
2018-11-03T01:19:53.176Z,8.40
2018-11-03T01:24:56.468Z,7.40
2018-11-03T01:29:59.752Z,11.00
2018-11-03T01:35:03.041Z,9.40
2018-11-03T01:40:06.788Z,6.90
2018-11-03T01:45:10.147Z,7.30
2018-11-03T01:50:13.481Z,9.80
2018-11-03T01:55:16.752Z,5.13
2018-11-03T02:00:20.029Z,6.50
2018-11-03T02:05:23.335Z,5.37
2018-11-03T02:10:26.625Z,8.70
2018-11-03T02:15:29.911Z,5.93
2018-11-03T02:20:33.156Z,13.03
2018-11-03T02:25:36.392Z,6.77
2018-11-03T02:30:39.627Z,6.33
2018-11-03T02:35:42.849Z,6.13
2018-11-03T02:40:46.096Z,6.10
2018-11-03T02:45:49.341Z,8.60
2018-11-03T02:50:52.577Z,10.90
2018-11-03T02:55:55.837Z,9.80
2018-11-03T03:00:59.056Z,9.83
2018-11-03T03:06:02.311Z,9.13
2018-11-03T03:11:05.617Z,9.53
2018-11-03T03:16:08.864Z,6.80
2018-11-03T03:21:12.116Z,6.50
2018-11-03T03:26:15.357Z,7.33
2018-11-03T03:31:18.621Z,6.27
2018-11-03T03:36:21.860Z,7.83
2018-11-03T03:41:25.148Z,6.83
2018-11-03T03:46:28.369Z,7.47
2018-11-03T03:51:31.649Z,6.03
2018-11-03T03:56:34.927Z,5.80
2018-11-03T04:01:38.167Z,6.30
2018-11-03T04:06:41.413Z,6.83
2018-11-03T04:11:44.644Z,10.33
2018-11-03T04:16:47.890Z,12.17
2018-11-03T04:21:51.120Z,5.73
2018-11-03T04:26:54.356Z,10.40
2018-11-03T04:31:57.600Z,7.13
2018-11-03T04:37:00.853Z,9.67
2018-11-03T04:42:04.110Z,8.70
2018-11-03T04:47:07.342Z,6.80
2018-11-03T04:52:10.589Z,9.53
2018-11-03T04:57:13.793Z,8.80
2018-11-03T05:02:17.069Z,7.40
2018-11-03T05:07:20.300Z,8.70
2018-11-03T05:12:23.520Z,7.50
2018-11-03T05:17:26.737Z,9.83
2018-11-03T05:22:29.950Z,8.13
2018-11-03T05:27:33.269Z,9.87
2018-11-03T05:32:36.676Z,8.03
2018-11-03T05:37:39.928Z,10.53
2018-11-03T05:42:43.172Z,8.73
2018-11-03T05:47:46.392Z,11.97
2018-11-03T05:52:49.615Z,10.93
2018-11-03T05:57:52.880Z,10.33
2018-11-03T06:02:57.591Z,11.07
2018-11-03T06:08:00.845Z,7.03
2018-11-03T06:13:04.067Z,7.93
2018-11-03T06:18:07.275Z,9.00
2018-11-03T06:23:10.576Z,9.60
2018-11-03T06:28:13.884Z,8.70
2018-11-03T06:33:17.028Z,6.30
2018-11-03T06:38:20.280Z,9.00
2018-11-03T06:43:23.477Z,18.40
2018-11-03T06:48:26.689Z,5.90
2018-11-03T06:53:29.994Z,7.63
2018-11-03T06:58:33.240Z,10.97
2018-11-03T07:03:36.484Z,9.30
2018-11-03T07:08:39.694Z,9.73
2018-11-03T07:13:42.908Z,6.60
2018-11-03T07:18:46.141Z,7.57
2018-11-03T07:23:49.428Z,10.27
2018-11-03T07:28:52.688Z,10.87
2018-11-03T07:33:55.970Z,8.43
2018-11-03T07:38:59.195Z,7.83
2018-11-03T07:44:02.472Z,6.33
2018-11-03T07:49:06.269Z,9.20
2018-11-03T07:54:09.469Z,13.40
2018-11-03T07:59:12.708Z,7.73
2018-11-03T08:04:15.994Z,14.53
2018-11-03T08:09:19.260Z,8.57
2018-11-03T08:14:22.515Z,12.03
2018-11-03T08:19:25.785Z,8.17
2018-11-03T08:24:28.980Z,8.97
2018-11-03T08:29:32.235Z,14.50
2018-11-03T08:34:35.505Z,8.47
2018-11-03T08:39:38.825Z,10.13
2018-11-03T08:44:41.958Z,9.97
2018-11-03T08:49:45.188Z,11.10
2018-11-03T08:54:48.400Z,11.80
2018-11-03T08:59:51.687Z,11.03
2018-11-03T09:04:54.820Z,9.37
2018-11-03T09:09:58.074Z,10.07
2018-11-03T09:15:01.382Z,11.40
2018-11-03T09:20:05.309Z,11.10
2018-11-03T09:25:11.609Z,10.50
2018-11-03T09:30:17.780Z,9.17
2018-11-03T09:35:21.057Z,11.33
2018-11-03T09:40:24.332Z,6.47
2018-11-03T09:45:27.586Z,7.00
2018-11-03T09:50:30.894Z,9.93
2018-11-03T09:55:34.148Z,9.40
2018-11-03T10:00:37.464Z,7.70
2018-11-03T10:05:40.718Z,13.67
2018-11-03T10:10:44.208Z,13.90
2018-11-03T10:15:47.494Z,18.20
2018-11-03T10:20:50.724Z,9.17
2018-11-03T10:25:54.023Z,8.03
2018-11-03T10:30:57.265Z,11.50
2018-11-03T10:36:00.536Z,12.03
2018-11-03T10:41:03.819Z,7.97
2018-11-03T10:46:07.097Z,12.20
2018-11-03T10:51:10.360Z,10.10
2018-11-03T10:56:13.586Z,9.40
2018-11-03T11:01:22.063Z,9.63
2018-11-03T11:06:30.729Z,9.13
2018-11-03T11:11:39.541Z,12.50
2018-11-03T11:18:50.273Z,10.00
2018-11-03T11:23:53.534Z,8.37
2018-11-03T11:28:56.776Z,13.13
2018-11-03T11:34:00.045Z,13.33
2018-11-03T11:39:04.089Z,16.37
2018-11-03T11:44:07.528Z,12.20
2018-11-03T11:49:10.770Z,14.00
2018-11-03T11:54:14.029Z,15.70
2018-11-03T11:59:17.251Z,9.87
2018-11-03T12:04:20.467Z,7.97
2018-11-03T12:09:23.682Z,13.60
2018-11-03T12:14:26.932Z,26.03
2018-11-03T12:19:30.175Z,36.20
2018-11-03T12:24:33.437Z,42.20
2018-11-03T12:29:38.790Z,49.33
2018-11-03T12:34:42.075Z,55.67
2018-11-03T12:39:45.321Z,41.33
2018-11-03T12:44:48.582Z,28.37
2018-11-03T12:49:56.065Z,29.87
2018-11-03T12:54:59.655Z,20.00
2018-11-03T13:00:02.940Z,20.60
2018-11-03T13:05:07.112Z,22.30
2018-11-03T13:10:10.529Z,24.20
2018-11-03T13:15:14.215Z,23.40
2018-11-03T13:20:17.447Z,19.23
2018-11-03T13:25:20.720Z,22.50
2018-11-03T13:30:23.951Z,19.53
2018-11-03T13:35:27.440Z,20.50
2018-11-03T13:40:30.721Z,18.07
2018-11-03T13:45:33.979Z,22.53
2018-11-03T13:50:37.282Z,14.20
2018-11-03T13:55:40.524Z,16.00
2018-11-03T14:00:43.769Z,19.27
2018-11-03T14:05:47.010Z,13.90
2018-11-03T14:10:50.243Z,13.70
2018-11-03T14:15:53.483Z,15.90
2018-11-03T14:20:56.695Z,14.33
2018-11-03T14:26:00.001Z,16.80
2018-11-03T14:31:03.263Z,12.13
2018-11-03T14:36:06.517Z,18.93
2018-11-03T14:41:09.736Z,18.50
2018-11-03T14:46:12.966Z,14.30
2018-11-03T14:51:16.467Z,11.70
2018-11-03T14:56:19.921Z,17.20
2018-11-03T15:01:29.915Z,10.00
2018-11-03T15:06:33.181Z,7.90
2018-11-03T15:11:38.025Z,11.45
2018-11-03T15:16:41.448Z,16.87
2018-11-03T15:21:44.692Z,8.43
2018-11-03T15:26:47.996Z,8.70
2018-11-03T15:31:51.291Z,6.67
2018-11-03T15:36:54.512Z,7.80
2018-11-03T15:41:57.857Z,10.97
2018-11-03T15:47:01.196Z,9.63
2018-11-03T15:52:04.411Z,8.83
2018-11-03T15:57:07.677Z,18.23
2018-11-03T16:02:11.884Z,9.70
2018-11-03T16:07:16.140Z,7.53
2018-11-03T16:12:19.520Z,8.20
2018-11-03T16:17:22.704Z,7.20
2018-11-03T16:22:26.234Z,6.20
2018-11-03T16:27:29.696Z,8.40
2018-11-03T16:32:33.560Z,5.10
2018-11-03T16:37:37.372Z,7.97
2018-11-03T16:42:42.233Z,6.30
2018-11-03T16:47:45.765Z,22.47
2018-11-03T16:52:48.995Z,16.73
2018-11-03T16:57:52.208Z,18.67
2018-11-03T17:02:55.515Z,14.00
2018-11-03T17:07:58.744Z,15.43
2018-11-03T17:13:03.581Z,14.40
2018-11-03T17:18:07.102Z,15.43
2018-11-03T17:23:10.362Z,15.37
2018-11-03T17:28:13.555Z,10.70
2018-11-03T17:33:16.764Z,8.77
2018-11-03T17:38:20.460Z,12.00
2018-11-03T17:43:23.671Z,15.40
2018-11-03T17:48:26.904Z,16.17
2018-11-03T17:53:30.111Z,10.37
2018-11-03T17:58:33.361Z,15.37
2018-11-03T18:03:36.704Z,9.57
2018-11-03T18:08:39.944Z,11.33
2018-11-03T18:13:43.213Z,13.17
2018-11-03T18:18:46.512Z,13.17
2018-11-03T18:23:49.760Z,19.07
2018-11-03T18:28:52.989Z,34.57
2018-11-03T18:33:56.240Z,39.53
2018-11-03T18:38:59.528Z,48.50
2018-11-03T18:44:02.767Z,44.23
2018-11-03T18:49:05.992Z,34.83
2018-11-03T18:54:09.221Z,31.33
2018-11-03T18:59:12.463Z,44.67
2018-11-03T19:04:15.699Z,33.73
2018-11-03T19:09:18.974Z,35.67
2018-11-03T19:14:22.174Z,35.10
2018-11-03T19:19:25.420Z,33.40
2018-11-03T19:24:28.843Z,35.80
2018-11-03T19:29:32.126Z,32.50
2018-11-03T19:34:35.312Z,29.30
2018-11-03T19:39:38.559Z,32.10
2018-11-03T19:44:41.896Z,30.77
2018-11-03T19:49:45.215Z,24.13
2018-11-03T19:54:48.483Z,23.13
2018-11-03T19:59:51.692Z,18.50
2018-11-03T20:04:55.060Z,20.60
2018-11-03T20:09:58.359Z,22.00
2018-11-03T20:15:01.572Z,24.03
2018-11-03T20:20:06.039Z,18.80
2018-11-03T20:25:10.540Z,23.80
2018-11-03T20:30:15.020Z,17.70
2018-11-03T20:35:18.284Z,17.00
2018-11-03T20:40:21.601Z,16.07
2018-11-03T20:45:24.830Z,14.53
2018-11-03T20:50:28.053Z,18.60
2018-11-03T20:55:31.270Z,16.87
2018-11-03T21:00:34.547Z,18.43
2018-11-03T21:05:37.772Z,16.47
2018-11-03T21:10:41.017Z,21.23
2018-11-03T21:15:44.217Z,16.73
2018-11-03T21:20:47.416Z,15.53
2018-11-03T21:25:50.648Z,15.50
2018-11-03T21:30:53.908Z,14.10
2018-11-03T21:35:57.223Z,17.90
2018-11-03T21:41:00.459Z,18.80
2018-11-03T21:46:03.723Z,21.23
2018-11-03T21:51:06.928Z,16.40
2018-11-03T21:56:10.148Z,18.70
2018-11-03T22:01:13.463Z,22.87
2018-11-03T22:06:16.702Z,21.10
2018-11-03T22:11:19.896Z,20.53
2018-11-03T22:16:23.105Z,18.10
2018-11-03T22:21:26.330Z,19.17
2018-11-03T22:26:29.619Z,14.40
2018-11-03T22:31:32.819Z,15.83
2018-11-03T22:36:36.016Z,19.90
2018-11-03T22:41:39.286Z,15.70
2018-11-03T22:46:42.490Z,15.90
2018-11-03T22:51:45.738Z,17.33
2018-11-03T22:56:48.957Z,18.17
2018-11-03T23:01:52.170Z,15.60
2018-11-03T23:06:55.392Z,18.07
2018-11-03T23:11:58.800Z,16.87
2018-11-03T23:17:02.171Z,17.50
2018-11-03T23:22:05.717Z,27.63
2018-11-03T23:27:08.882Z,15.50
2018-11-03T23:32:12.105Z,13.93
2018-11-03T23:37:15.309Z,13.50
2018-11-03T23:42:18.576Z,15.50
2018-11-03T23:47:21.795Z,18.27
2018-11-03T23:52:30.384Z,15.87
2018-11-03T23:57:33.629Z,17.17
